createdAt,value
2023-04-15T00:00:07.161Z,12.45
2023-04-15T00:01:12.264Z,12.46
2023-04-15T00:02:07.091Z,12.45
2023-04-15T00:03:07.118Z,12.46
2023-04-15T00:04:06.999Z,12.42
2023-04-15T00:05:06.868Z,12.34
2023-04-15T00:06:06.810Z,12.42
2023-04-15T00:07:06.754Z,12.42
2023-04-15T00:08:06.693Z,12.37
2023-04-15T00:09:06.647Z,12.38
2023-04-15T00:10:06.583Z,12.41
2023-04-15T00:11:06.520Z,12.38
2023-04-15T00:12:06.476Z,12.34
2023-04-15T00:13:06.405Z,12.33
2023-04-15T00:14:06.352Z,12.42
2023-04-15T00:15:06.290Z,12.31
2023-04-15T00:16:06.241Z,12.34
2023-04-15T00:17:06.207Z,12.33
2023-04-15T00:18:06.130Z,12.31
2023-04-15T00:19:06.070Z,12.44
2023-04-15T00:20:06.015Z,12.37
2023-04-15T00:21:05.956Z,12.30
2023-04-15T00:22:05.894Z,12.42
2023-04-15T00:23:05.840Z,12.31
2023-04-15T00:24:05.790Z,12.38
2023-04-15T00:25:05.737Z,12.34
2023-04-15T00:26:05.695Z,12.27
2023-04-15T00:27:05.617Z,12.38
2023-04-15T00:28:05.553Z,12.38
2023-04-15T00:29:05.493Z,12.39
2023-04-15T00:30:05.440Z,12.39
2023-04-15T00:31:05.433Z,12.37
2023-04-15T00:32:05.326Z,12.34
2023-04-15T00:33:05.269Z,12.39
2023-04-15T00:34:05.210Z,12.37
2023-04-15T00:35:05.204Z,12.33
2023-04-15T00:36:05.103Z,12.37
2023-04-15T00:37:05.039Z,12.33
2023-04-15T00:38:04.982Z,12.38
2023-04-15T00:39:04.926Z,12.29
2023-04-15T00:40:04.869Z,12.37
2023-04-15T00:41:04.825Z,12.33
2023-04-15T00:42:04.849Z,12.33
2023-04-15T00:43:04.700Z,12.31
2023-04-15T00:44:04.643Z,12.30
2023-04-15T00:45:04.594Z,12.30
2023-04-15T00:46:04.549Z,12.29
2023-04-15T00:47:04.475Z,12.33
2023-04-15T00:48:04.433Z,12.29
2023-04-15T00:49:04.363Z,12.34
2023-04-15T00:50:04.322Z,12.23
2023-04-15T00:51:04.252Z,12.29
2023-04-15T00:52:04.194Z,12.29
2023-04-15T00:53:05.091Z,12.21
2023-04-15T00:54:04.073Z,12.31
2023-04-15T00:55:04.017Z,12.21
2023-04-15T00:56:05.601Z,12.30
2023-04-15T00:57:03.911Z,12.27
2023-04-15T00:58:03.844Z,12.26
2023-04-15T00:59:03.788Z,12.26
2023-04-15T01:00:03.734Z,12.21
2023-04-15T01:01:03.674Z,12.27
2023-04-15T01:02:03.778Z,12.20
2023-04-15T01:03:03.688Z,12.21
2023-04-15T01:04:03.614Z,12.20
2023-04-15T01:05:03.458Z,12.30
2023-04-15T01:06:04.155Z,12.23
2023-04-15T01:07:03.333Z,12.15
2023-04-15T01:08:03.276Z,12.21
2023-04-15T01:09:03.457Z,12.27
2023-04-15T01:10:03.158Z,12.30
2023-04-15T01:11:03.106Z,12.27
2023-04-15T01:12:03.053Z,12.30
2023-04-15T01:13:03.002Z,12.23
2023-04-15T01:14:02.930Z,12.26
2023-04-15T01:15:02.876Z,12.20
2023-04-15T01:16:02.870Z,12.26
2023-04-15T01:17:02.772Z,12.26
2023-04-15T01:18:02.742Z,12.21
2023-04-15T01:19:02.896Z,12.20
2023-04-15T01:20:02.589Z,12.16
2023-04-15T01:21:02.530Z,12.21
2023-04-15T01:22:02.472Z,12.13
2023-04-15T01:23:02.419Z,12.19
2023-04-15T01:24:02.363Z,12.19
2023-04-15T01:25:02.315Z,12.15
2023-04-15T01:26:02.286Z,12.16
2023-04-15T01:27:02.189Z,12.23
2023-04-15T01:28:02.125Z,12.12
2023-04-15T01:29:02.283Z,12.16
2023-04-15T01:30:02.019Z,12.09
2023-04-15T01:31:01.967Z,12.15
2023-04-15T01:32:01.905Z,12.15
2023-04-15T01:33:01.894Z,12.13
2023-04-15T01:34:01.784Z,12.11
2023-04-15T01:35:01.764Z,12.15
2023-04-15T01:36:01.670Z,12.13
2023-04-15T01:37:01.618Z,12.16
2023-04-15T01:38:01.558Z,12.05
2023-04-15T01:39:01.717Z,12.15
2023-04-15T01:40:01.473Z,12.12
2023-04-15T01:41:01.391Z,12.19
2023-04-15T01:42:01.355Z,12.06
2023-04-15T01:43:01.380Z,12.05
2023-04-15T01:44:01.217Z,12.02
2023-04-15T01:45:01.181Z,12.05
2023-04-15T01:46:01.105Z,12.06
2023-04-15T01:47:01.161Z,12.08
2023-04-15T01:48:01.025Z,12.02
2023-04-15T01:49:01.166Z,12.05
2023-04-15T01:50:00.874Z,12.02
2023-04-15T01:51:00.820Z,12.02
2023-04-15T01:52:00.774Z,12.02
2023-04-15T01:53:00.707Z,12.02
2023-04-15T01:54:00.653Z,12.01
2023-04-15T01:55:00.609Z,12.04
2023-04-15T01:56:00.532Z,12.02
2023-04-15T01:57:00.490Z,11.99
2023-04-15T01:58:00.420Z,11.97
2023-04-15T01:59:00.471Z,12.08
2023-04-15T02:00:00.312Z,11.99
2023-04-15T02:01:00.321Z,11.97
2023-04-15T02:02:00.242Z,12.01
2023-04-15T02:03:00.225Z,12.04
2023-04-15T02:04:00.137Z,12.04
2023-04-15T02:05:00.022Z,12.05
2023-04-15T02:05:59.969Z,11.99
2023-04-15T02:06:59.919Z,11.99
2023-04-15T02:07:59.850Z,11.94
2023-04-15T02:09:00.049Z,11.96
2023-04-15T02:09:59.735Z,11.96
2023-04-15T02:10:59.678Z,11.99
2023-04-15T02:11:59.620Z,11.97
2023-04-15T02:12:59.572Z,11.94
2023-04-15T02:13:59.511Z,11.99
2023-04-15T02:14:59.455Z,12.01
2023-04-15T02:15:59.399Z,11.93
2023-04-15T02:16:59.480Z,11.87
2023-04-15T02:17:59.368Z,11.93
2023-04-15T02:18:59.349Z,12.01
2023-04-15T02:19:59.161Z,11.93
2023-04-15T02:20:59.140Z,11.97
2023-04-15T02:21:59.045Z,12.01
2023-04-15T02:22:58.990Z,11.96
2023-04-15T02:23:58.934Z,11.96
2023-04-15T02:24:58.892Z,11.97
2023-04-15T02:25:58.822Z,12.01
2023-04-15T02:26:58.761Z,12.04
2023-04-15T02:27:58.704Z,11.97
2023-04-15T02:28:58.839Z,11.93
2023-04-15T02:29:58.592Z,11.93
2023-04-15T02:30:58.531Z,11.97
2023-04-15T02:31:58.507Z,12.02
2023-04-15T02:32:58.445Z,12.01
2023-04-15T02:33:58.364Z,12.01
2023-04-15T02:34:58.312Z,11.89
2023-04-15T02:35:58.249Z,11.87
2023-04-15T02:36:58.191Z,12.01
2023-04-15T02:37:58.133Z,11.85
2023-04-15T02:38:58.075Z,11.82
2023-04-15T02:39:58.018Z,11.94
2023-04-15T02:40:58.006Z,11.86
2023-04-15T02:41:57.900Z,11.93
2023-04-15T02:42:57.846Z,11.86
2023-04-15T02:43:57.810Z,11.83
2023-04-15T02:44:57.736Z,11.86
2023-04-15T02:45:57.713Z,11.83
2023-04-15T02:46:57.622Z,11.86
2023-04-15T02:47:57.609Z,11.86
2023-04-15T02:48:57.511Z,11.90
2023-04-15T02:49:57.445Z,11.96
2023-04-15T02:50:57.395Z,11.87
2023-04-15T02:51:57.327Z,11.83
2023-04-15T02:52:57.288Z,11.94
2023-04-15T02:53:57.213Z,11.96
2023-04-15T02:54:57.163Z,11.86
2023-04-15T02:55:57.099Z,11.87
2023-04-15T02:56:57.041Z,11.86
2023-04-15T02:57:56.986Z,11.87
2023-04-15T02:58:56.927Z,11.87
2023-04-15T02:59:56.872Z,11.87
2023-04-15T03:00:56.874Z,11.83
2023-04-15T03:01:56.796Z,11.83
2023-04-15T03:02:56.949Z,11.86
2023-04-15T03:03:56.693Z,11.87
2023-04-15T03:04:56.600Z,11.87
2023-04-15T03:05:56.524Z,11.85
2023-04-15T03:06:56.464Z,11.87
2023-04-15T03:07:56.405Z,11.82
2023-04-15T03:08:56.350Z,11.86
2023-04-15T03:09:56.289Z,11.82
2023-04-15T03:10:56.248Z,11.78
2023-04-15T03:11:56.178Z,11.78
2023-04-15T03:12:56.128Z,11.80
2023-04-15T03:13:56.072Z,11.75
2023-04-15T03:14:56.005Z,11.77
2023-04-15T03:15:55.999Z,11.82
2023-04-15T03:16:55.904Z,11.77
2023-04-15T03:17:55.881Z,11.80
2023-04-15T03:18:55.778Z,11.82
2023-04-15T03:19:55.765Z,11.78
2023-04-15T03:20:55.671Z,11.80
2023-04-15T03:21:55.609Z,11.82
2023-04-15T03:22:55.547Z,11.77
2023-04-15T03:23:55.493Z,11.78
2023-04-15T03:24:55.445Z,11.71
2023-04-15T03:25:56.141Z,11.71
2023-04-15T03:26:55.314Z,11.71
2023-04-15T03:27:56.134Z,11.67
2023-04-15T03:28:56.137Z,11.82
2023-04-15T03:29:55.165Z,11.70
2023-04-15T03:30:55.129Z,11.75
2023-04-15T03:31:55.026Z,11.75
2023-04-15T03:32:55.016Z,11.72
2023-04-15T03:33:54.916Z,11.64
2023-04-15T03:34:54.871Z,11.67
2023-04-15T03:35:54.798Z,11.71
2023-04-15T03:36:54.750Z,11.65
2023-04-15T03:37:54.683Z,11.65
2023-04-15T03:38:54.625Z,11.68
2023-04-15T03:39:54.571Z,11.67
2023-04-15T03:40:54.519Z,11.70
2023-04-15T03:41:54.462Z,11.68
2023-04-15T03:42:54.402Z,11.70
2023-04-15T03:43:54.344Z,11.67
2023-04-15T03:44:54.286Z,11.71
2023-04-15T03:45:54.227Z,11.70
2023-04-15T03:46:54.245Z,11.67
2023-04-15T03:47:54.157Z,11.65
2023-04-15T03:48:54.059Z,11.67
2023-04-15T03:49:53.999Z,11.68
2023-04-15T03:50:53.943Z,11.71
2023-04-15T03:51:53.886Z,11.64
2023-04-15T03:52:53.828Z,11.62
2023-04-15T03:53:53.771Z,11.65
2023-04-15T03:54:53.706Z,11.65
2023-04-15T03:55:53.669Z,11.65
2023-04-15T03:56:53.596Z,11.65
2023-04-15T03:57:53.546Z,11.61
2023-04-15T03:58:53.494Z,11.64
2023-04-15T03:59:53.469Z,11.62
2023-04-15T04:00:53.455Z,11.56
2023-04-15T04:01:53.351Z,11.64
2023-04-15T04:02:53.545Z,11.59
2023-04-15T04:03:53.341Z,11.56
2023-04-15T04:04:53.174Z,11.65
2023-04-15T04:05:53.069Z,11.65
2023-04-15T04:06:53.018Z,11.59
2023-04-15T04:07:52.963Z,11.53
2023-04-15T04:08:52.907Z,11.65
2023-04-15T04:09:52.890Z,11.59
2023-04-15T04:10:52.790Z,11.61
2023-04-15T04:11:52.738Z,11.59
2023-04-15T04:12:52.678Z,11.57
2023-04-15T04:13:52.614Z,11.57
2023-04-15T04:14:52.556Z,11.53
2023-04-15T04:15:52.520Z,11.61
2023-04-15T04:16:52.545Z,11.54
2023-04-15T04:17:52.409Z,11.61
2023-04-15T04:18:52.337Z,11.56
2023-04-15T04:19:52.269Z,11.54
2023-04-15T04:20:52.207Z,11.57
2023-04-15T04:21:52.155Z,11.54
2023-04-15T04:22:52.096Z,11.57
2023-04-15T04:23:52.035Z,11.61
2023-04-15T04:24:51.988Z,11.57
2023-04-15T04:25:51.923Z,11.53
2023-04-15T04:26:51.866Z,11.59
2023-04-15T04:27:51.807Z,11.57
2023-04-15T04:28:51.755Z,11.57
2023-04-15T04:29:51.692Z,11.46
2023-04-15T04:30:51.633Z,11.54
2023-04-15T04:31:51.610Z,11.52
2023-04-15T04:32:51.627Z,11.53
2023-04-15T04:33:51.465Z,11.53
2023-04-15T04:34:51.401Z,11.52
2023-04-15T04:35:51.339Z,11.53
2023-04-15T04:36:51.307Z,11.52
2023-04-15T04:37:51.225Z,11.49
2023-04-15T04:38:54.148Z,11.46
2023-04-15T04:39:51.118Z,11.44
2023-04-15T04:40:51.063Z,11.52
2023-04-15T04:41:50.995Z,11.41
2023-04-15T04:42:50.942Z,11.47
2023-04-15T04:43:50.887Z,11.52
2023-04-15T04:44:50.830Z,11.47
2023-04-15T04:45:50.800Z,11.39
2023-04-15T04:46:50.717Z,11.44
2023-04-15T04:47:50.700Z,11.43
2023-04-15T04:48:50.591Z,11.41
2023-04-15T04:49:50.544Z,11.41
2023-04-15T04:50:50.481Z,11.44
2023-04-15T04:51:50.420Z,11.46
2023-04-15T04:52:50.363Z,11.43
2023-04-15T04:53:50.305Z,11.47
2023-04-15T04:54:50.250Z,11.46
2023-04-15T04:55:50.192Z,11.44
2023-04-15T04:56:50.145Z,11.47
2023-04-15T04:57:50.078Z,11.47
2023-04-15T04:58:50.017Z,11.41
2023-04-15T04:59:49.960Z,11.50
2023-04-15T05:00:49.965Z,11.46
2023-04-15T05:01:49.854Z,11.39
2023-04-15T05:02:49.932Z,11.36
2023-04-15T05:03:49.759Z,11.47
2023-04-15T05:04:49.669Z,11.39
2023-04-15T05:05:49.631Z,11.41
2023-04-15T05:06:49.558Z,11.36
2023-04-15T05:07:49.502Z,11.41
2023-04-15T05:08:49.447Z,11.43
2023-04-15T05:09:49.384Z,11.38
2023-04-15T05:10:49.325Z,11.43
2023-04-15T05:11:49.277Z,11.41
2023-04-15T05:12:49.224Z,11.39
2023-04-15T05:13:49.155Z,11.35
2023-04-15T05:14:49.094Z,11.35
2023-04-15T05:15:49.077Z,11.38
2023-04-15T05:16:48.986Z,11.38
2023-04-15T05:17:48.963Z,11.39
2023-04-15T05:18:48.864Z,11.28
2023-04-15T05:19:48.811Z,11.35
2023-04-15T05:20:48.748Z,11.35
2023-04-15T05:21:48.690Z,11.36
2023-04-15T05:22:48.634Z,11.32
2023-04-15T05:23:48.579Z,11.34
2023-04-15T05:24:48.524Z,11.38
2023-04-15T05:25:48.458Z,11.35
2023-04-15T05:26:48.406Z,11.35
2023-04-15T05:27:48.350Z,11.32
2023-04-15T05:28:48.295Z,11.39
2023-04-15T05:29:48.229Z,11.35
2023-04-15T05:30:48.260Z,11.39
2023-04-15T05:31:48.129Z,11.29
2023-04-15T05:32:48.140Z,11.29
2023-04-15T05:33:48.003Z,11.35
2023-04-15T05:34:48.055Z,11.27
2023-04-15T05:35:47.888Z,11.34
2023-04-15T05:36:47.825Z,11.28
2023-04-15T05:37:47.776Z,11.25
2023-04-15T05:38:47.712Z,11.31
2023-04-15T05:39:47.654Z,11.29
2023-04-15T05:40:50.166Z,11.34
2023-04-15T05:41:47.544Z,11.27
2023-04-15T05:42:47.665Z,11.25
2023-04-15T05:43:47.424Z,11.34
2023-04-15T05:44:47.472Z,11.25
2023-04-15T05:45:47.334Z,11.25
2023-04-15T05:46:47.250Z,11.29
2023-04-15T05:47:47.244Z,11.27
2023-04-15T05:48:47.134Z,11.31
2023-04-15T05:49:47.079Z,11.21
2023-04-15T05:50:47.019Z,11.19
2023-04-15T05:51:46.959Z,11.27
2023-04-15T05:52:46.917Z,11.24
2023-04-15T05:53:46.852Z,11.24
2023-04-15T05:54:46.786Z,11.28
2023-04-15T05:55:46.735Z,11.19
2023-04-15T05:56:46.669Z,11.32
2023-04-15T05:57:46.613Z,11.24
2023-04-15T05:58:46.557Z,11.20
2023-04-15T05:59:46.498Z,11.25
2023-04-15T06:00:46.456Z,11.21
2023-04-15T06:01:46.430Z,11.17
2023-04-15T06:02:46.460Z,11.16
2023-04-15T06:03:46.396Z,11.16
2023-04-15T06:04:46.264Z,11.13
2023-04-15T06:05:46.151Z,11.17
2023-04-15T06:06:46.095Z,11.16
2023-04-15T06:07:48.309Z,11.20
2023-04-15T06:08:45.978Z,11.20
2023-04-15T06:09:45.930Z,11.19
2023-04-15T06:10:45.859Z,11.19
2023-04-15T06:11:45.819Z,11.17
2023-04-15T06:12:45.747Z,11.19
2023-04-15T06:13:45.700Z,11.16
2023-04-15T06:14:45.635Z,11.19
2023-04-15T06:15:45.575Z,11.17
2023-04-15T06:16:45.525Z,11.16
2023-04-15T06:17:45.513Z,11.20
2023-04-15T06:18:45.399Z,11.14
2023-04-15T06:19:45.409Z,11.17
2023-04-15T06:20:45.283Z,11.20
2023-04-15T06:21:45.231Z,11.27
2023-04-15T06:22:45.171Z,11.17
2023-04-15T06:23:45.107Z,11.14
2023-04-15T06:24:45.051Z,11.20
2023-04-15T06:25:44.996Z,11.19
2023-04-15T06:26:44.938Z,11.14
2023-04-15T06:27:44.884Z,11.17
2023-04-15T06:28:44.825Z,11.14
2023-04-15T06:29:44.781Z,11.13
2023-04-15T06:30:44.714Z,11.19
2023-04-15T06:31:44.708Z,11.19
2023-04-15T06:32:44.610Z,11.27
2023-04-15T06:33:44.529Z,11.14
2023-04-15T06:34:44.488Z,11.19
2023-04-15T06:35:44.416Z,11.14
2023-04-15T06:36:44.359Z,11.19
2023-04-15T06:37:44.303Z,11.19
2023-04-15T06:38:44.239Z,11.17
2023-04-15T06:39:44.185Z,11.14
2023-04-15T06:40:44.128Z,11.25
2023-04-15T06:41:44.067Z,11.13
2023-04-15T06:42:44.008Z,11.21
2023-04-15T06:43:43.954Z,11.19
2023-04-15T06:44:43.889Z,11.17
2023-04-15T06:45:43.857Z,11.24
2023-04-15T06:46:43.784Z,11.17
2023-04-15T06:47:43.795Z,11.16
2023-04-15T06:48:43.788Z,11.13
2023-04-15T06:49:43.611Z,11.14
2023-04-15T06:50:43.542Z,11.21
2023-04-15T06:51:43.486Z,11.20
2023-04-15T06:52:43.432Z,11.20
2023-04-15T06:53:43.375Z,11.14
2023-04-15T06:54:43.314Z,11.14
2023-04-15T06:55:43.254Z,11.24
2023-04-15T06:56:43.203Z,11.17
2023-04-15T06:57:43.142Z,11.25
2023-04-15T06:58:43.080Z,11.14
2023-04-15T06:59:43.027Z,11.27
2023-04-15T07:00:43.022Z,11.14
2023-04-15T07:01:42.906Z,11.25
2023-04-15T07:02:42.924Z,11.14
2023-04-15T07:03:42.796Z,11.16
2023-04-15T07:04:42.742Z,11.25
2023-04-15T07:05:42.679Z,11.16
2023-04-15T07:06:42.620Z,11.20
2023-04-15T07:07:42.556Z,11.21
2023-04-15T07:08:42.504Z,11.17
2023-04-15T07:09:42.444Z,11.24
2023-04-15T07:10:42.394Z,11.20
2023-04-15T07:11:42.333Z,11.16
2023-04-15T07:12:42.271Z,11.25
2023-04-15T07:13:42.223Z,11.19
2023-04-15T07:14:42.154Z,11.28
2023-04-15T07:15:42.098Z,11.31
2023-04-15T07:16:42.073Z,11.24
2023-04-15T07:17:42.000Z,11.24
2023-04-15T07:18:41.921Z,11.35
2023-04-15T07:19:41.869Z,11.29
2023-04-15T07:20:41.813Z,11.27
2023-04-15T07:21:42.106Z,11.32
2023-04-15T07:22:41.703Z,11.27
2023-04-15T07:23:41.654Z,11.29
2023-04-15T07:24:41.591Z,11.27
2023-04-15T07:25:41.518Z,11.29
2023-04-15T07:26:41.460Z,11.35
2023-04-15T07:27:41.406Z,11.34
2023-04-15T07:28:41.346Z,11.29
2023-04-15T07:29:41.292Z,11.35
2023-04-15T07:30:41.284Z,11.29
2023-04-15T07:31:41.173Z,11.29
2023-04-15T07:32:41.155Z,11.34
2023-04-15T07:33:55.705Z,11.29
2023-04-15T07:34:40.996Z,11.39
2023-04-15T07:35:40.944Z,11.31
2023-04-15T07:36:40.888Z,11.39
2023-04-15T07:37:40.827Z,11.34
2023-04-15T07:38:40.774Z,11.31
2023-04-15T07:39:40.707Z,11.29
2023-04-15T07:40:40.649Z,11.38
2023-04-15T07:41:40.593Z,11.34
2023-04-15T07:42:41.442Z,11.35
2023-04-15T07:43:40.484Z,11.35
2023-04-15T07:44:40.477Z,11.35
2023-04-15T07:45:40.403Z,11.36
2023-04-15T07:46:40.334Z,11.36
2023-04-15T07:47:40.276Z,11.32
2023-04-15T07:48:40.200Z,11.34
2023-04-15T07:49:40.130Z,11.38
2023-04-15T07:50:40.076Z,11.32
2023-04-15T07:51:40.028Z,11.35
2023-04-15T07:52:39.962Z,11.35
2023-04-15T07:53:39.912Z,11.34
2023-04-15T07:54:39.850Z,11.32
2023-04-15T07:55:39.786Z,11.34
2023-04-15T07:56:39.731Z,11.34
2023-04-15T07:57:39.670Z,11.36
2023-04-15T07:58:39.611Z,11.38
2023-04-15T07:59:39.565Z,11.38
2023-04-15T08:00:39.508Z,11.35
2023-04-15T08:01:39.439Z,11.35
2023-04-15T08:02:41.398Z,11.39
2023-04-15T08:03:39.489Z,11.38
2023-04-15T08:04:39.492Z,11.41
2023-04-15T08:05:39.219Z,11.36
2023-04-15T08:06:39.153Z,11.35
2023-04-15T08:07:39.091Z,11.36
2023-04-15T08:08:39.054Z,11.46
2023-04-15T08:09:38.974Z,11.41
2023-04-15T08:10:38.923Z,11.44
2023-04-15T08:11:38.863Z,11.36
2023-04-15T08:12:38.805Z,11.47
2023-04-15T08:13:38.770Z,11.47
2023-04-15T08:14:38.686Z,11.38
2023-04-15T08:15:38.775Z,11.46
2023-04-15T08:16:38.591Z,11.46
2023-04-15T08:17:38.566Z,11.46
2023-04-15T08:18:38.459Z,11.43
2023-04-15T08:19:38.394Z,11.47
2023-04-15T08:20:38.340Z,11.44
2023-04-15T08:21:38.284Z,11.38
2023-04-15T08:22:38.274Z,11.43
2023-04-15T08:23:38.167Z,11.43
2023-04-15T08:24:38.112Z,11.43
2023-04-15T08:27:09.653Z,11.46
2023-04-15T08:28:09.582Z,11.43
2023-04-15T08:30:04.681Z,11.49
2023-04-15T08:31:02.378Z,11.46
2023-04-15T08:32:55.779Z,11.41
2023-04-15T08:33:55.762Z,11.44
2023-04-15T08:34:55.608Z,11.39
2023-04-15T08:35:55.545Z,11.44
2023-04-15T08:36:55.492Z,11.46
2023-04-15T08:37:55.442Z,11.44
2023-04-15T08:38:55.377Z,11.46
2023-04-15T08:39:55.326Z,11.43
2023-04-15T08:40:55.273Z,11.41
2023-04-15T08:41:55.197Z,11.47
2023-04-15T08:42:55.145Z,11.49
2023-04-15T08:43:55.085Z,11.43
2023-04-15T08:44:55.024Z,11.50
2023-04-15T08:45:54.967Z,11.52
2023-04-15T08:46:55.003Z,11.47
2023-04-15T08:47:54.899Z,11.56
2023-04-15T08:48:54.819Z,11.50
2023-04-15T08:49:54.753Z,11.50
2023-04-15T08:50:54.681Z,11.50
2023-04-15T08:51:54.625Z,11.46
2023-04-15T08:52:54.566Z,11.50
2023-04-15T08:53:54.522Z,11.49
2023-04-15T08:54:54.452Z,11.53
2023-04-15T08:55:54.398Z,11.54
2023-04-15T08:56:54.439Z,11.54
2023-04-15T08:57:54.276Z,11.54
2023-04-15T08:58:54.217Z,11.53
2023-04-15T08:59:54.205Z,11.54
2023-04-15T09:00:54.139Z,11.54
2023-04-15T09:01:54.061Z,11.46
2023-04-15T09:02:54.110Z,11.52
2023-04-15T09:03:54.038Z,11.52
2023-04-15T09:04:53.876Z,11.53
2023-04-15T09:05:53.814Z,11.50
2023-04-15T09:06:53.773Z,11.53
2023-04-15T09:07:53.734Z,11.61
2023-04-15T09:08:53.657Z,11.52
2023-04-15T09:09:53.599Z,11.57
2023-04-15T09:10:53.532Z,11.57
2023-04-15T09:11:53.479Z,11.50
2023-04-15T09:12:53.415Z,11.56
2023-04-15T09:13:53.358Z,11.54
2023-04-15T09:14:53.298Z,11.57
2023-04-15T09:15:53.288Z,11.57
2023-04-15T09:16:53.230Z,11.56
2023-04-15T09:17:53.190Z,11.54
2023-04-15T09:18:53.083Z,11.54
2023-04-15T09:19:53.008Z,11.54
2023-04-15T09:20:52.951Z,11.57
2023-04-15T09:21:52.894Z,11.59
2023-04-15T09:22:52.839Z,11.59
2023-04-15T09:23:52.780Z,11.61
2023-04-15T09:24:52.721Z,11.56
2023-04-15T09:25:52.671Z,11.67
2023-04-15T09:26:52.610Z,11.67
2023-04-15T09:27:52.554Z,11.62
2023-04-15T09:28:52.533Z,11.61
2023-04-15T09:29:52.429Z,11.64
2023-04-15T09:30:52.394Z,11.65
2023-04-15T09:31:52.312Z,11.62
2023-04-15T09:32:52.280Z,11.62
2023-04-15T09:33:52.201Z,11.62
2023-04-15T09:34:52.151Z,11.71
2023-04-15T09:35:52.082Z,11.65
2023-04-15T09:36:52.027Z,11.68
2023-04-15T09:37:51.997Z,11.70
2023-04-15T09:38:51.917Z,11.68
2023-04-15T09:39:51.857Z,11.68
2023-04-15T09:40:51.796Z,11.70
2023-04-15T09:41:51.738Z,11.68
2023-04-15T09:42:51.677Z,11.67
2023-04-15T09:43:51.637Z,11.70
2023-04-15T09:44:51.565Z,11.68
2023-04-15T09:45:51.511Z,11.72
2023-04-15T09:46:51.454Z,11.67
2023-04-15T09:47:51.409Z,11.70
2023-04-15T09:48:51.341Z,11.67
2023-04-15T09:49:51.309Z,11.67
2023-04-15T09:50:51.228Z,11.71
2023-04-15T09:52:04.139Z,11.72
2023-04-15T09:52:51.103Z,11.71
2023-04-15T09:53:51.043Z,11.74
2023-04-15T09:54:50.997Z,11.72
2023-04-15T09:55:50.930Z,11.74
2023-04-15T09:56:50.880Z,11.77
2023-04-15T09:57:50.815Z,11.83
2023-04-15T09:58:50.764Z,11.83
2023-04-15T09:59:50.716Z,11.83
2023-04-15T10:00:50.648Z,11.77
2023-04-15T10:01:50.665Z,11.77
2023-04-15T10:02:50.643Z,11.83
2023-04-15T10:03:50.556Z,11.87
2023-04-15T10:04:50.422Z,11.83
2023-04-15T10:05:50.366Z,11.86
2023-04-15T10:06:50.303Z,11.87
2023-04-15T10:07:50.246Z,11.78
2023-04-15T10:08:50.189Z,11.82
2023-04-15T10:09:50.143Z,11.82
2023-04-15T10:10:50.069Z,11.86
2023-04-15T10:11:50.014Z,11.89
2023-04-15T10:12:49.961Z,11.87
2023-04-15T10:13:49.900Z,11.89
2023-04-15T10:14:49.840Z,11.85
2023-04-15T10:15:49.807Z,11.86
2023-04-15T10:16:49.734Z,11.85
2023-04-15T10:17:49.679Z,11.87
2023-04-15T10:18:49.612Z,11.87
2023-04-15T10:19:49.551Z,11.89
2023-04-15T10:20:49.497Z,11.83
2023-04-15T10:21:49.452Z,11.85
2023-04-15T10:22:49.379Z,11.94
2023-04-15T10:23:49.322Z,11.86
2023-04-15T10:24:49.269Z,11.87
2023-04-15T10:25:49.210Z,11.83
2023-04-15T10:26:49.157Z,11.85
2023-04-15T10:27:49.092Z,11.93
2023-04-15T10:28:49.037Z,11.87
2023-04-15T10:29:48.994Z,11.89
2023-04-15T10:30:48.920Z,11.87
2023-04-15T10:31:48.937Z,11.96
2023-04-15T10:32:48.814Z,11.85
2023-04-15T10:33:48.811Z,11.83
2023-04-15T10:34:48.690Z,12.01
2023-04-15T10:35:48.633Z,11.83
2023-04-15T10:36:48.579Z,11.94
2023-04-15T10:37:48.515Z,12.02
2023-04-15T10:38:48.477Z,11.87
2023-04-15T10:39:48.399Z,11.99
2023-04-15T10:40:48.349Z,11.97
2023-04-15T10:41:48.288Z,12.04
2023-04-15T10:42:48.246Z,11.90
2023-04-15T10:43:48.177Z,11.97
2023-04-15T10:44:48.115Z,11.97
2023-04-15T10:45:48.056Z,11.94
2023-04-15T10:46:50.806Z,12.05
2023-04-15T10:47:48.003Z,11.99
2023-04-15T10:48:47.887Z,11.93
2023-04-15T10:49:47.826Z,12.01
2023-04-15T10:50:47.774Z,11.94
2023-04-15T10:51:47.724Z,12.01
2023-04-15T10:52:47.661Z,12.09
2023-04-15T10:53:47.596Z,11.94
2023-04-15T10:54:47.546Z,12.01
2023-04-15T10:55:47.481Z,11.94
2023-04-15T10:56:47.443Z,11.96
2023-04-15T10:57:47.367Z,11.97
2023-04-15T10:58:47.336Z,11.94
2023-04-15T10:59:47.257Z,11.96
2023-04-15T11:00:47.199Z,11.99
2023-04-15T11:01:47.248Z,11.94
2023-04-15T11:02:47.253Z,11.96
2023-04-15T11:03:47.348Z,12.01
2023-04-15T11:04:47.017Z,11.99
2023-04-15T11:05:46.911Z,11.97
2023-04-15T11:06:46.846Z,11.97
2023-04-15T11:07:46.826Z,11.99
2023-04-15T11:08:46.737Z,12.01
2023-04-15T11:09:46.683Z,11.97
2023-04-15T11:10:46.626Z,12.01
2023-04-15T11:11:46.562Z,11.99
2023-04-15T11:12:46.512Z,12.02
2023-04-15T11:13:46.442Z,12.02
2023-04-15T11:14:46.394Z,11.99
2023-04-15T11:15:46.333Z,12.02
2023-04-15T11:16:46.325Z,12.04
2023-04-15T11:17:46.632Z,12.05
2023-04-15T11:18:46.161Z,12.06
2023-04-15T11:19:46.102Z,12.06
2023-04-15T11:20:46.070Z,12.06
2023-04-15T11:21:45.985Z,12.16
2023-04-15T11:22:45.928Z,12.06
2023-04-15T11:23:45.871Z,12.13
2023-04-15T11:24:45.814Z,12.19
2023-04-15T11:25:45.760Z,12.15
2023-04-15T11:26:45.698Z,12.09
2023-04-15T11:27:45.654Z,12.19
2023-04-15T11:28:45.662Z,12.12
2023-04-15T11:29:45.526Z,12.13
2023-04-15T11:30:45.486Z,12.11
2023-04-15T11:31:45.491Z,12.15
2023-04-15T11:32:45.413Z,12.19
2023-04-15T11:33:45.298Z,12.15
2023-04-15T11:34:45.239Z,12.12
2023-04-15T11:35:45.190Z,12.13
2023-04-15T11:36:45.130Z,12.15
2023-04-15T11:37:45.067Z,12.21
2023-04-15T11:38:45.040Z,12.16
2023-04-15T11:39:44.958Z,12.12
2023-04-15T11:40:47.034Z,12.26
2023-04-15T11:41:44.844Z,12.19
2023-04-15T11:42:49.994Z,12.24
2023-04-15T11:43:44.732Z,12.15
2023-04-15T11:44:44.668Z,12.16
2023-04-15T11:45:46.321Z,12.16
2023-04-15T11:46:45.668Z,12.15
2023-04-15T11:47:44.527Z,12.29
2023-04-15T11:48:44.447Z,12.21
2023-04-15T11:49:44.388Z,12.24
2023-04-15T11:50:44.332Z,12.23
2023-04-15T11:51:44.284Z,12.29
2023-04-15T11:52:44.214Z,12.21
2023-04-15T11:53:44.164Z,12.20
2023-04-15T11:54:44.096Z,12.24
2023-04-15T11:55:44.044Z,12.21
2023-04-15T11:56:43.983Z,12.24
2023-04-15T11:57:43.925Z,12.23
2023-04-15T11:58:43.872Z,12.27
2023-04-15T11:59:45.469Z,12.24
2023-04-15T12:00:43.758Z,12.26
2023-04-15T12:01:43.696Z,12.27
2023-04-15T12:02:43.783Z,12.26
2023-04-15T12:03:43.717Z,12.30
2023-04-15T12:04:43.685Z,12.27
2023-04-15T12:05:43.465Z,12.31
2023-04-15T12:06:43.416Z,12.27
2023-04-15T12:07:43.361Z,12.23
2023-04-15T12:08:43.304Z,12.26
2023-04-15T12:09:43.246Z,12.33
2023-04-15T12:10:43.180Z,12.24
2023-04-15T12:11:43.132Z,12.26
2023-04-15T12:12:43.062Z,12.29
2023-04-15T12:13:43.012Z,12.30
2023-04-15T12:14:42.949Z,12.38
2023-04-15T12:15:42.917Z,12.29
2023-04-15T12:16:48.164Z,12.31
2023-04-15T12:17:51.070Z,12.31
2023-04-15T12:18:42.722Z,12.26
2023-04-15T12:19:42.668Z,12.27
2023-04-15T12:20:42.612Z,12.34
2023-04-15T12:21:42.552Z,12.38
2023-04-15T12:22:42.608Z,12.26
2023-04-15T12:23:42.448Z,12.27
2023-04-15T12:24:42.382Z,12.31
2023-04-15T12:25:42.320Z,12.33
2023-04-15T12:26:42.262Z,12.29
2023-04-15T12:27:42.211Z,12.27
2023-04-15T12:28:42.153Z,12.26
2023-04-15T12:29:42.109Z,12.29
2023-04-15T12:30:42.038Z,12.33
2023-04-15T12:31:42.016Z,12.29
2023-04-15T12:32:43.423Z,12.31
2023-04-15T12:33:41.874Z,12.30
2023-04-15T12:34:41.827Z,12.37
2023-04-15T12:35:41.753Z,12.31
2023-04-15T12:36:41.700Z,12.29
2023-04-15T12:37:41.648Z,12.29
2023-04-15T12:38:41.585Z,12.38
2023-04-15T12:39:41.570Z,12.34
2023-04-15T12:40:41.474Z,12.38
2023-04-15T12:41:42.312Z,12.38
2023-04-15T12:42:41.359Z,12.37
2023-04-15T12:43:41.297Z,12.38
2023-04-15T12:44:41.244Z,12.38
2023-04-15T12:45:45.829Z,12.37
2023-04-15T12:46:41.147Z,12.39
2023-04-15T12:47:41.091Z,12.37
2023-04-15T12:48:41.013Z,12.39
2023-04-15T12:49:41.252Z,12.38
2023-04-15T12:50:40.929Z,12.34
2023-04-15T12:51:40.844Z,12.38
2023-04-15T12:52:40.787Z,12.33
2023-04-15T12:53:40.728Z,12.38
2023-04-15T12:54:40.670Z,12.31